createdAt,value
2022-08-30T16:01:42.622Z,12.20
2022-08-30T16:03:15.548Z,9.20
2022-08-30T16:04:47.382Z,11.60
2022-08-30T16:06:22.195Z,10.00
2022-08-30T16:07:53.985Z,9.60
2022-08-30T16:09:30.175Z,8.20
2022-08-30T16:11:06.839Z,9.80
2022-08-30T16:12:38.578Z,10.40
2022-08-30T16:14:11.503Z,11.60
2022-08-30T16:15:46.279Z,7.80
2022-08-30T16:17:18.369Z,16.00
2022-08-30T16:18:53.637Z,13.40
2022-08-30T16:20:26.220Z,16.80
2022-08-30T16:25:45.762Z,13.80
2022-08-30T16:27:17.516Z,14.20
2022-08-30T16:28:49.393Z,12.40
2022-08-30T16:30:21.144Z,12.40
2022-08-30T16:31:52.967Z,11.00
2022-08-30T16:33:24.908Z,14.40
2022-08-30T16:34:56.773Z,12.40
2022-08-30T16:36:29.338Z,12.00
2022-08-30T16:38:01.529Z,9.60
2022-08-30T16:39:33.337Z,10.20
2022-08-30T16:41:06.121Z,5.60
2022-08-30T16:42:38.039Z,11.00
2022-08-30T16:44:09.871Z,14.40
2022-08-30T16:45:43.457Z,12.20
2022-08-30T16:47:16.653Z,9.80
2022-08-30T16:48:49.294Z,9.40
2022-08-30T16:50:23.346Z,12.00
2022-08-30T16:51:55.117Z,7.00
2022-08-30T16:53:27.176Z,10.80
2022-08-30T16:54:59.283Z,14.80
2022-08-30T16:56:31.725Z,13.80
2022-08-30T16:58:07.586Z,17.00
2022-08-30T16:59:44.469Z,12.60
2022-08-30T17:01:18.627Z,14.80
2022-08-30T17:02:55.173Z,18.20
2022-08-30T17:04:26.950Z,10.60
2022-08-30T17:05:58.806Z,17.00
2022-08-30T17:07:30.668Z,15.00
2022-08-30T17:09:03.346Z,20.20
2022-08-30T17:10:35.391Z,20.00
2022-08-30T17:12:07.330Z,18.80
2022-08-30T17:13:39.122Z,18.60
2022-08-30T17:15:11.178Z,20.80
2022-08-30T17:16:43.324Z,20.20
2022-08-30T17:18:17.740Z,20.60
2022-08-30T17:19:50.026Z,22.20
2022-08-30T17:21:21.874Z,21.00
2022-08-30T17:22:55.088Z,16.20
2022-08-30T17:24:27.966Z,21.60
2022-08-30T17:26:00.367Z,18.20
2022-08-30T17:27:32.659Z,21.20
2022-08-30T17:29:04.682Z,21.80
2022-08-30T17:30:37.652Z,22.60
2022-08-30T17:32:09.416Z,17.40
2022-08-30T17:33:43.036Z,19.20
2022-08-30T17:35:17.160Z,20.40
2022-08-30T17:36:49.414Z,18.00
2022-08-30T17:38:21.158Z,18.40
2022-08-30T17:39:52.949Z,18.60
2022-08-30T17:41:24.610Z,14.20
2022-08-30T17:42:56.588Z,12.60
2022-08-30T17:44:30.981Z,14.00
2022-08-30T17:46:13.611Z,9.80
2022-08-30T17:47:45.395Z,11.00
2022-08-30T17:49:18.670Z,9.00
2022-08-30T17:50:56.093Z,7.80
2022-08-30T17:52:28.480Z,14.60
2022-08-30T17:54:00.449Z,12.60
2022-08-30T17:55:32.603Z,9.80
2022-08-30T17:57:11.325Z,10.00
2022-08-30T17:58:43.276Z,11.60
2022-08-30T18:00:15.670Z,9.60
2022-08-30T18:01:49.118Z,14.80
2022-08-30T18:03:21.574Z,12.80
2022-08-30T18:04:57.175Z,13.80
2022-08-30T18:06:29.128Z,13.20
2022-08-30T18:08:01.002Z,14.00
2022-08-30T18:09:34.152Z,9.80
2022-08-30T18:11:06.285Z,12.60
2022-08-30T18:12:38.297Z,11.80
2022-08-30T18:14:11.372Z,12.00
2022-08-30T18:17:33.926Z,12.60
2022-08-30T18:19:09.560Z,12.00
2022-08-30T18:20:41.472Z,13.00
2022-08-30T18:22:13.329Z,10.20
2022-08-30T18:23:45.895Z,11.80
2022-08-30T18:25:18.059Z,10.00
2022-08-30T18:26:49.766Z,13.60
2022-08-30T18:28:21.819Z,13.40
2022-08-30T18:29:53.607Z,10.40
2022-08-30T18:31:25.717Z,13.20
2022-08-30T18:32:57.616Z,15.80
2022-08-30T18:34:29.759Z,10.60
2022-08-30T18:36:01.929Z,15.00
2022-08-30T18:37:34.449Z,16.00
2022-08-30T18:39:07.820Z,15.20
2022-08-30T18:40:39.918Z,13.20
2022-08-30T18:42:12.068Z,10.40
2022-08-30T18:43:44.050Z,13.00
2022-08-30T18:45:16.669Z,13.20
2022-08-30T18:46:55.816Z,17.60
2022-08-30T18:48:28.416Z,15.80
2022-08-30T18:50:00.136Z,15.00
2022-08-30T18:51:32.104Z,18.80
2022-08-30T18:53:03.852Z,18.80
2022-08-30T18:54:46.262Z,26.20
2022-08-30T18:56:23.666Z,25.20
2022-08-30T18:58:01.824Z,19.80
2022-08-30T18:59:36.830Z,31.00
2022-08-30T19:01:08.765Z,25.80
2022-08-30T19:02:45.348Z,28.20
2022-08-30T19:04:22.567Z,23.60
2022-08-30T19:06:06.357Z,28.80
2022-08-30T19:07:40.537Z,16.60
2022-08-30T19:09:12.380Z,24.20
2022-08-30T19:10:44.238Z,19.80
2022-08-30T19:14:07.616Z,23.60
2022-08-30T19:15:39.855Z,17.80
2022-08-30T19:17:11.834Z,19.00
2022-08-30T19:18:43.539Z,24.60
2022-08-30T19:20:20.580Z,18.60
2022-08-30T19:21:52.378Z,24.20
2022-08-30T19:23:27.019Z,23.20
2022-08-30T19:24:58.821Z,26.60
2022-08-30T19:26:34.175Z,28.00
2022-08-30T19:28:07.109Z,27.60
2022-08-30T19:29:39.620Z,30.60
2022-08-30T19:31:11.346Z,30.20
2022-08-30T19:32:43.362Z,32.00
2022-08-30T19:34:19.157Z,30.80
2022-08-30T19:35:51.615Z,28.40
2022-08-30T19:37:23.582Z,29.80
2022-08-30T19:38:55.798Z,33.40
2022-08-30T19:40:28.086Z,31.80
2022-08-30T19:42:00.331Z,31.80
2022-08-30T19:43:32.449Z,29.60
2022-08-30T19:45:05.452Z,31.80
2022-08-30T19:46:37.838Z,30.20
2022-08-30T19:48:09.535Z,28.60
2022-08-30T19:49:44.250Z,28.40
2022-08-30T19:51:15.996Z,21.20
2022-08-30T19:52:54.032Z,22.40
2022-08-30T19:54:26.538Z,29.60
2022-08-30T19:55:58.328Z,28.40
2022-08-30T19:57:30.168Z,25.40
2022-08-30T19:59:02.004Z,24.40
2022-08-30T20:00:33.741Z,27.00
2022-08-30T20:02:08.399Z,27.80
2022-08-30T20:03:40.334Z,26.80
2022-08-30T20:05:12.625Z,20.20
2022-08-30T20:06:45.372Z,25.00
2022-08-30T20:08:17.111Z,19.80
2022-08-30T20:09:49.781Z,16.20
2022-08-30T20:11:21.599Z,20.60
2022-08-30T20:12:54.635Z,17.00
2022-08-30T20:14:26.345Z,19.20
2022-08-30T20:15:58.177Z,13.40
2022-08-30T20:17:47.568Z,21.20
2022-08-30T20:19:27.338Z,24.40
2022-08-30T20:20:59.544Z,17.60
2022-08-30T20:22:31.385Z,20.00
2022-08-30T20:24:04.008Z,16.40
2022-08-30T20:25:36.228Z,17.00
2022-08-30T20:27:08.024Z,21.40
2022-08-30T20:28:42.374Z,21.60
2022-08-30T20:30:14.566Z,15.60
2022-08-30T20:31:46.433Z,18.40
2022-08-30T20:33:18.965Z,15.00
2022-08-30T20:34:53.284Z,14.60
2022-08-30T20:36:24.974Z,14.20
2022-08-30T20:37:56.711Z,14.60
2022-08-30T20:39:28.465Z,16.20
2022-08-30T20:41:01.224Z,11.60
2022-08-30T20:42:32.996Z,15.80
2022-08-30T20:44:04.916Z,16.20
2022-08-30T20:45:36.712Z,17.40
2022-08-30T20:47:08.531Z,17.80
2022-08-30T20:48:40.307Z,20.20
2022-08-30T20:50:14.583Z,27.20
2022-08-30T20:51:50.900Z,23.40
2022-08-30T20:53:25.998Z,36.00
2022-08-30T20:54:57.693Z,36.80
2022-08-30T20:56:29.655Z,39.20
2022-08-30T20:58:01.350Z,32.60
2022-08-30T20:59:33.195Z,36.00
2022-08-30T21:01:07.839Z,35.40
2022-08-30T21:02:42.690Z,36.00
2022-08-30T21:04:18.935Z,33.20
2022-08-30T21:05:50.972Z,32.40
2022-08-30T21:07:22.828Z,30.20
2022-08-30T21:08:54.680Z,27.00
2022-08-30T21:10:26.396Z,28.00
2022-08-30T21:11:58.129Z,28.80
2022-08-30T21:13:30.365Z,29.80
2022-08-30T21:15:26.986Z,27.80
2022-08-30T21:16:54.823Z,33.20
2022-08-30T21:18:29.658Z,35.20
2022-08-30T21:20:01.511Z,32.40
2022-08-30T21:21:33.705Z,26.80
2022-08-30T21:23:05.629Z,25.20
2022-08-30T21:24:37.384Z,29.20
2022-08-30T21:26:09.997Z,29.00
2022-08-30T21:27:43.791Z,30.40
2022-08-30T21:29:15.828Z,25.00
2022-08-30T21:30:47.673Z,24.80
2022-08-30T21:32:19.390Z,26.60
2022-08-30T21:33:52.620Z,28.80
2022-08-30T21:35:42.937Z,29.00
2022-08-30T21:37:14.637Z,29.80
2022-08-30T21:38:46.535Z,27.00
2022-08-30T21:40:18.329Z,28.40
2022-08-30T21:41:53.018Z,24.20
2022-08-30T21:43:24.726Z,30.00
2022-08-30T21:44:56.454Z,27.00
2022-08-30T21:46:28.719Z,30.20
2022-08-30T21:48:00.517Z,27.40
2022-08-30T21:49:32.484Z,25.00
2022-08-30T21:51:08.919Z,30.00
2022-08-30T21:52:40.711Z,24.60
2022-08-30T21:54:13.552Z,24.60
2022-08-30T21:55:45.715Z,25.40
2022-08-30T21:57:20.063Z,26.80
2022-08-30T21:58:51.845Z,20.20
2022-08-30T22:00:24.278Z,21.60
2022-08-30T22:01:57.605Z,10.00
2022-08-30T22:03:29.406Z,21.20
2022-08-30T22:05:01.163Z,20.80
2022-08-30T22:06:36.656Z,21.20
2022-08-30T22:08:08.379Z,17.80
2022-08-30T22:09:40.216Z,19.20
2022-08-30T22:11:14.664Z,20.20
2022-08-30T22:12:46.365Z,18.60
2022-08-30T22:14:19.468Z,21.00
2022-08-30T22:15:51.191Z,32.40
2022-08-30T22:17:23.335Z,38.00
2022-08-30T22:18:55.070Z,42.00
2022-08-30T22:20:30.402Z,38.20
2022-08-30T22:22:02.498Z,35.00
2022-08-30T22:23:34.420Z,32.20
2022-08-30T22:25:06.642Z,26.60
2022-08-30T22:26:38.562Z,27.60
2022-08-30T22:28:10.297Z,27.80
2022-08-30T22:29:42.741Z,32.60
2022-08-30T22:31:15.263Z,38.20
2022-08-30T22:32:47.682Z,38.20
2022-08-30T22:34:19.526Z,38.20
